sensor_id;sensor_type;location;lat;lon;timestamp;P1;durP1;ratioP1;P2;durP2;ratioP2
7166;SDS011;3625;51.762;14.320;2023-02-24T00:02:17;37.60;;;24.03;;
7166;SDS011;3625;51.762;14.320;2023-02-24T00:04:48;37.30;;;23.73;;
7166;SDS011;3625;51.762;14.320;2023-02-24T00:07:18;36.07;;;23.67;;
7166;SDS011;3625;51.762;14.320;2023-02-24T00:13:12;32.83;;;21.50;;
7166;SDS011;3625;51.762;14.320;2023-02-24T00:15:44;31.90;;;21.53;;
7166;SDS011;3625;51.762;14.320;2023-02-24T00:21:14;30.93;;;19.67;;
7166;SDS011;3625;51.762;14.320;2023-02-24T00:23:46;29.07;;;20.27;;
7166;SDS011;3625;51.762;14.320;2023-02-24T00:26:25;28.97;;;19.47;;
7166;SDS011;3625;51.762;14.320;2023-02-24T00:29:04;30.40;;;19.67;;
7166;SDS011;3625;51.762;14.320;2023-02-24T00:31:35;28.90;;;18.57;;
7166;SDS011;3625;51.762;14.320;2023-02-24T00:34:11;26.43;;;18.23;;
7166;SDS011;3625;51.762;14.320;2023-02-24T00:36:40;27.10;;;17.27;;
7166;SDS011;3625;51.762;14.320;2023-02-24T00:39:13;26.70;;;16.80;;
7166;SDS011;3625;51.762;14.320;2023-02-24T00:41:49;27.77;;;17.23;;
7166;SDS011;3625;51.762;14.320;2023-02-24T00:44:23;25.57;;;17.00;;
7166;SDS011;3625;51.762;14.320;2023-02-24T00:46:55;24.97;;;16.30;;
7166;SDS011;3625;51.762;14.320;2023-02-24T00:49:32;21.63;;;14.63;;
7166;SDS011;3625;51.762;14.320;2023-02-24T00:52:08;18.43;;;13.47;;
7166;SDS011;3625;51.762;14.320;2023-02-24T00:54:40;19.27;;;14.13;;
7166;SDS011;3625;51.762;14.320;2023-02-24T00:57:13;17.53;;;12.20;;
7166;SDS011;3625;51.762;14.320;2023-02-24T00:59:43;21.30;;;13.83;;
7166;SDS011;3625;51.762;14.320;2023-02-24T01:02:14;18.70;;;13.03;;
7166;SDS011;3625;51.762;14.320;2023-02-24T01:04:43;20.90;;;13.30;;
7166;SDS011;3625;51.762;14.320;2023-02-24T01:07:12;18.90;;;12.23;;
7166;SDS011;3625;51.762;14.320;2023-02-24T01:09:49;21.63;;;14.83;;
7166;SDS011;3625;51.762;14.320;2023-02-24T01:12:23;21.50;;;13.50;;
7166;SDS011;3625;51.762;14.320;2023-02-24T01:15:09;22.30;;;14.10;;
7166;SDS011;3625;51.762;14.320;2023-02-24T01:17:38;20.50;;;13.57;;
7166;SDS011;3625;51.762;14.320;2023-02-24T01:20:12;24.27;;;15.00;;
7166;SDS011;3625;51.762;14.320;2023-02-24T01:22:47;20.60;;;13.57;;
7166;SDS011;3625;51.762;14.320;2023-02-24T01:25:19;20.53;;;13.33;;
7166;SDS011;3625;51.762;14.320;2023-02-24T01:27:50;21.37;;;12.77;;
7166;SDS011;3625;51.762;14.320;2023-02-24T01:30:19;20.67;;;13.20;;
7166;SDS011;3625;51.762;14.320;2023-02-24T01:32:50;25.37;;;15.33;;
7166;SDS011;3625;51.762;14.320;2023-02-24T01:35:19;23.33;;;14.00;;
7166;SDS011;3625;51.762;14.320;2023-02-24T01:37:50;25.77;;;14.87;;
7166;SDS011;3625;51.762;14.320;2023-02-24T01:40:20;24.57;;;14.57;;
7166;SDS011;3625;51.762;14.320;2023-02-24T01:42:53;23.47;;;14.20;;
7166;SDS011;3625;51.762;14.320;2023-02-24T01:45:23;27.20;;;14.53;;
7166;SDS011;3625;51.762;14.320;2023-02-24T01:48:05;29.43;;;16.03;;
7166;SDS011;3625;51.762;14.320;2023-02-24T01:50:38;32.17;;;16.50;;
7166;SDS011;3625;51.762;14.320;2023-02-24T01:53:10;28.10;;;15.70;;
7166;SDS011;3625;51.762;14.320;2023-02-24T01:55:40;26.80;;;14.87;;
7166;SDS011;3625;51.762;14.320;2023-02-24T01:58:19;27.67;;;15.30;;
7166;SDS011;3625;51.762;14.320;2023-02-24T02:01:04;26.47;;;14.03;;
7166;SDS011;3625;51.762;14.320;2023-02-24T02:03:35;27.57;;;14.93;;
7166;SDS011;3625;51.762;14.320;2023-02-24T02:06:12;29.23;;;15.60;;
7166;SDS011;3625;51.762;14.320;2023-02-24T02:08:44;23.57;;;14.43;;
7166;SDS011;3625;51.762;14.320;2023-02-24T02:11:19;28.30;;;14.23;;
7166;SDS011;3625;51.762;14.320;2023-02-24T02:13:51;29.77;;;15.13;;
7166;SDS011;3625;51.762;14.320;2023-02-24T02:16:35;23.57;;;13.53;;
7166;SDS011;3625;51.762;14.320;2023-02-24T02:22:54;26.13;;;13.50;;
7166;SDS011;3625;51.762;14.320;2023-02-24T02:26:21;29.10;;;14.77;;
7166;SDS011;3625;51.762;14.320;2023-02-24T02:32:44;24.20;;;14.43;;
7166;SDS011;3625;51.762;14.320;2023-02-24T02:35:33;25.90;;;14.97;;
7166;SDS011;3625;51.762;14.320;2023-02-24T02:38:12;25.07;;;14.43;;
7166;SDS011;3625;51.762;14.320;2023-02-24T02:40:53;27.53;;;14.37;;
7166;SDS011;3625;51.762;14.320;2023-02-24T02:43:33;21.80;;;12.90;;
7166;SDS011;3625;51.762;14.320;2023-02-24T02:46:24;25.87;;;14.43;;
7166;SDS011;3625;51.762;14.320;2023-02-24T02:49:02;26.23;;;14.20;;
7166;SDS011;3625;51.762;14.320;2023-02-24T02:51:47;25.77;;;13.33;;
7166;SDS011;3625;51.762;14.320;2023-02-24T02:54:26;25.83;;;14.20;;
7166;SDS011;3625;51.762;14.320;2023-02-24T02:57:06;26.37;;;14.50;;
7166;SDS011;3625;51.762;14.320;2023-02-24T02:59:44;23.23;;;13.73;;
7166;SDS011;3625;51.762;14.320;2023-02-24T03:02:20;27.57;;;14.07;;
7166;SDS011;3625;51.762;14.320;2023-02-24T03:05:06;24.93;;;14.07;;
7166;SDS011;3625;51.762;14.320;2023-02-24T03:07:46;26.60;;;14.67;;
7166;SDS011;3625;51.762;14.320;2023-02-24T03:10:24;25.93;;;14.83;;
7166;SDS011;3625;51.762;14.320;2023-02-24T03:12:58;24.90;;;14.60;;
7166;SDS011;3625;51.762;14.320;2023-02-24T03:15:32;25.27;;;14.27;;
7166;SDS011;3625;51.762;14.320;2023-02-24T03:18:08;27.03;;;14.97;;
7166;SDS011;3625;51.762;14.320;2023-02-24T03:20:58;25.03;;;14.60;;
7166;SDS011;3625;51.762;14.320;2023-02-24T03:23:39;25.87;;;14.30;;
7166;SDS011;3625;51.762;14.320;2023-02-24T03:26:17;27.30;;;14.33;;
7166;SDS011;3625;51.762;14.320;2023-02-24T03:29:03;22.17;;;12.63;;
7166;SDS011;3625;51.762;14.320;2023-02-24T03:31:41;25.07;;;14.30;;
7166;SDS011;3625;51.762;14.320;2023-02-24T03:34:17;23.83;;;13.80;;
7166;SDS011;3625;51.762;14.320;2023-02-24T03:36:56;24.47;;;13.27;;
7166;SDS011;3625;51.762;14.320;2023-02-24T03:39:32;26.70;;;13.93;;
7166;SDS011;3625;51.762;14.320;2023-02-24T03:42:12;24.13;;;12.13;;
7166;SDS011;3625;51.762;14.320;2023-02-24T03:44:54;23.07;;;13.60;;
7166;SDS011;3625;51.762;14.320;2023-02-24T03:47:39;22.80;;;13.00;;
7166;SDS011;3625;51.762;14.320;2023-02-24T03:50:12;24.47;;;13.20;;
7166;SDS011;3625;51.762;14.320;2023-02-24T03:52:54;23.03;;;13.37;;
7166;SDS011;3625;51.762;14.320;2023-02-24T03:55:36;24.30;;;13.33;;
7166;SDS011;3625;51.762;14.320;2023-02-24T03:58:27;24.00;;;13.07;;
7166;SDS011;3625;51.762;14.320;2023-02-24T04:01:09;25.17;;;13.43;;
7166;SDS011;3625;51.762;14.320;2023-02-24T04:03:54;23.43;;;13.30;;
7166;SDS011;3625;51.762;14.320;2023-02-24T04:06:45;24.27;;;11.73;;
7166;SDS011;3625;51.762;14.320;2023-02-24T04:09:25;22.00;;;10.77;;
7166;SDS011;3625;51.762;14.320;2023-02-24T04:12:15;19.40;;;11.27;;
7166;SDS011;3625;51.762;14.320;2023-02-24T04:15:00;23.20;;;10.97;;
7166;SDS011;3625;51.762;14.320;2023-02-24T04:17:37;15.70;;;9.50;;
7166;SDS011;3625;51.762;14.320;2023-02-24T04:20:25;19.13;;;9.97;;
7166;SDS011;3625;51.762;14.320;2023-02-24T04:23:10;18.97;;;8.20;;
7166;SDS011;3625;51.762;14.320;2023-02-24T04:25:50;13.73;;;7.60;;
7166;SDS011;3625;51.762;14.320;2023-02-24T04:28:34;15.00;;;7.13;;
7166;SDS011;3625;51.762;14.320;2023-02-24T04:31:10;14.63;;;7.43;;
7166;SDS011;3625;51.762;14.320;2023-02-24T04:33:46;17.40;;;8.00;;
7166;SDS011;3625;51.762;14.320;2023-02-24T04:36:19;14.27;;;7.27;;
7166;SDS011;3625;51.762;14.320;2023-02-24T04:38:52;13.03;;;5.57;;
7166;SDS011;3625;51.762;14.320;2023-02-24T04:41:21;9.27;;;4.70;;
7166;SDS011;3625;51.762;14.320;2023-02-24T04:43:54;8.40;;;4.73;;
7166;SDS011;3625;51.762;14.320;2023-02-24T04:46:33;8.13;;;4.43;;
7166;SDS011;3625;51.762;14.320;2023-02-24T04:49:11;4.63;;;2.87;;
7166;SDS011;3625;51.762;14.320;2023-02-24T04:51:42;5.40;;;3.30;;
7166;SDS011;3625;51.762;14.320;2023-02-24T04:54:13;6.27;;;3.70;;
7166;SDS011;3625;51.762;14.320;2023-02-24T04:56:44;8.50;;;4.13;;
7166;SDS011;3625;51.762;14.320;2023-02-24T04:59:21;6.67;;;3.80;;
7166;SDS011;3625;51.762;14.320;2023-02-24T05:01:57;4.80;;;2.77;;
7166;SDS011;3625;51.762;14.320;2023-02-24T05:04:35;5.07;;;3.20;;
7166;SDS011;3625;51.762;14.320;2023-02-24T05:10:29;7.80;;;3.87;;
7166;SDS011;3625;51.762;14.320;2023-02-24T05:13:16;8.73;;;3.83;;
7166;SDS011;3625;51.762;14.320;2023-02-24T05:16:03;6.37;;;3.90;;
7166;SDS011;3625;51.762;14.320;2023-02-24T05:18:48;6.77;;;3.40;;
7166;SDS011;3625;51.762;14.320;2023-02-24T05:22:00;9.43;;;4.30;;
7166;SDS011;3625;51.762;14.320;2023-02-24T05:31:53;8.07;;;4.47;;
7166;SDS011;3625;51.762;14.320;2023-02-24T05:38:03;9.20;;;3.93;;
7166;SDS011;3625;51.762;14.320;2023-02-24T05:41:04;11.37;;;4.40;;
7166;SDS011;3625;51.762;14.320;2023-02-24T05:43:48;10.57;;;4.47;;
7166;SDS011;3625;51.762;14.320;2023-02-24T05:46:36;12.87;;;4.53;;
7166;SDS011;3625;51.762;14.320;2023-02-24T05:49:29;9.90;;;4.10;;
7166;SDS011;3625;51.762;14.320;2023-02-24T05:56:01;10.60;;;4.33;;
7166;SDS011;3625;51.762;14.320;2023-02-24T05:58:40;8.17;;;3.80;;
7166;SDS011;3625;51.762;14.320;2023-02-24T06:01:13;8.27;;;4.00;;
7166;SDS011;3625;51.762;14.320;2023-02-24T06:03:47;5.40;;;2.97;;
7166;SDS011;3625;51.762;14.320;2023-02-24T06:06:37;9.13;;;3.73;;
7166;SDS011;3625;51.762;14.320;2023-02-24T06:09:20;7.17;;;3.33;;
7166;SDS011;3625;51.762;14.320;2023-02-24T06:12:04;9.17;;;3.30;;
7166;SDS011;3625;51.762;14.320;2023-02-24T06:14:51;8.33;;;3.23;;
7166;SDS011;3625;51.762;14.320;2023-02-24T06:18:07;8.77;;;3.60;;
7166;SDS011;3625;51.762;14.320;2023-02-24T06:20:37;6.37;;;3.23;;
7166;SDS011;3625;51.762;14.320;2023-02-24T06:23:10;9.20;;;3.67;;
7166;SDS011;3625;51.762;14.320;2023-02-24T06:25:42;6.13;;;2.73;;
7166;SDS011;3625;51.762;14.320;2023-02-24T06:28:14;6.90;;;3.20;;
7166;SDS011;3625;51.762;14.320;2023-02-24T06:30:48;4.07;;;2.70;;
7166;SDS011;3625;51.762;14.320;2023-02-24T06:33:22;7.60;;;3.07;;
7166;SDS011;3625;51.762;14.320;2023-02-24T06:35:56;6.23;;;2.77;;
7166;SDS011;3625;51.762;14.320;2023-02-24T06:38:30;6.20;;;2.87;;
7166;SDS011;3625;51.762;14.320;2023-02-24T06:41:35;5.00;;;2.83;;
7166;SDS011;3625;51.762;14.320;2023-02-24T06:44:08;5.20;;;2.97;;
7166;SDS011;3625;51.762;14.320;2023-02-24T06:46:39;6.43;;;2.53;;
7166;SDS011;3625;51.762;14.320;2023-02-24T06:49:08;4.37;;;2.83;;
7166;SDS011;3625;51.762;14.320;2023-02-24T06:51:41;7.73;;;3.10;;
7166;SDS011;3625;51.762;14.320;2023-02-24T06:54:15;7.37;;;2.70;;
7166;SDS011;3625;51.762;14.320;2023-02-24T06:56:56;9.17;;;3.17;;
7166;SDS011;3625;51.762;14.320;2023-02-24T06:59:45;8.03;;;2.67;;
7166;SDS011;3625;51.762;14.320;2023-02-24T07:02:22;4.93;;;2.50;;
7166;SDS011;3625;51.762;14.320;2023-02-24T07:05:07;6.57;;;3.03;;
7166;SDS011;3625;51.762;14.320;2023-02-24T07:07:46;6.07;;;2.60;;
7166;SDS011;3625;51.762;14.320;2023-02-24T07:10:19;5.23;;;2.60;;
7166;SDS011;3625;51.762;14.320;2023-02-24T07:12:55;6.40;;;2.97;;
7166;SDS011;3625;51.762;14.320;2023-02-24T07:15:29;4.00;;;2.90;;
7166;SDS011;3625;51.762;14.320;2023-02-24T07:18:07;7.63;;;2.70;;
7166;SDS011;3625;51.762;14.320;2023-02-24T07:21:55;5.00;;;2.53;;
7166;SDS011;3625;51.762;14.320;2023-02-24T07:24:31;4.80;;;2.53;;
7166;SDS011;3625;51.762;14.320;2023-02-24T07:27:05;9.67;;;2.97;;
7166;SDS011;3625;51.762;14.320;2023-02-24T07:29:37;6.43;;;2.57;;
7166;SDS011;3625;51.762;14.320;2023-02-24T07:32:07;8.17;;;2.90;;
7166;SDS011;3625;51.762;14.320;2023-02-24T07:34:46;6.67;;;2.50;;
7166;SDS011;3625;51.762;14.320;2023-02-24T07:37:21;4.63;;;2.80;;
7166;SDS011;3625;51.762;14.320;2023-02-24T07:39:51;5.27;;;3.10;;
7166;SDS011;3625;51.762;14.320;2023-02-24T07:42:24;5.50;;;2.87;;
7166;SDS011;3625;51.762;14.320;2023-02-24T07:45:05;8.37;;;3.03;;
7166;SDS011;3625;51.762;14.320;2023-02-24T07:47:36;8.97;;;3.00;;
7166;SDS011;3625;51.762;14.320;2023-02-24T07:50:10;5.30;;;2.57;;
7166;SDS011;3625;51.762;14.320;2023-02-24T07:52:40;3.23;;;2.40;;
7166;SDS011;3625;51.762;14.320;2023-02-24T07:55:13;6.37;;;2.93;;
7166;SDS011;3625;51.762;14.320;2023-02-24T07:57:45;11.20;;;2.90;;
7166;SDS011;3625;51.762;14.320;2023-02-24T08:00:21;6.33;;;2.80;;
7166;SDS011;3625;51.762;14.320;2023-02-24T08:02:57;4.63;;;2.87;;
7166;SDS011;3625;51.762;14.320;2023-02-24T08:05:32;4.47;;;2.40;;
7166;SDS011;3625;51.762;14.320;2023-02-24T08:08:04;3.70;;;2.20;;
7166;SDS011;3625;51.762;14.320;2023-02-24T08:10:37;6.57;;;2.77;;
7166;SDS011;3625;51.762;14.320;2023-02-24T08:13:14;7.23;;;2.87;;
7166;SDS011;3625;51.762;14.320;2023-02-24T08:15:45;5.47;;;2.50;;
7166;SDS011;3625;51.762;14.320;2023-02-24T08:18:22;6.83;;;2.33;;
7166;SDS011;3625;51.762;14.320;2023-02-24T08:21:02;5.70;;;2.70;;
7166;SDS011;3625;51.762;14.320;2023-02-24T08:23:34;9.00;;;2.87;;
7166;SDS011;3625;51.762;14.320;2023-02-24T08:26:10;8.43;;;3.10;;
7166;SDS011;3625;51.762;14.320;2023-02-24T08:28:53;5.27;;;2.70;;
7166;SDS011;3625;51.762;14.320;2023-02-24T08:31:22;5.70;;;2.80;;
7166;SDS011;3625;51.762;14.320;2023-02-24T08:34:00;5.67;;;2.60;;
7166;SDS011;3625;51.762;14.320;2023-02-24T08:36:31;7.20;;;2.63;;
7166;SDS011;3625;51.762;14.320;2023-02-24T08:39:03;6.17;;;2.53;;
7166;SDS011;3625;51.762;14.320;2023-02-24T08:41:36;4.27;;;2.30;;
7166;SDS011;3625;51.762;14.320;2023-02-24T08:44:13;7.87;;;3.10;;
7166;SDS011;3625;51.762;14.320;2023-02-24T08:46:54;5.17;;;2.60;;
7166;SDS011;3625;51.762;14.320;2023-02-24T08:49:26;7.60;;;2.90;;
7166;SDS011;3625;51.762;14.320;2023-02-24T08:51:58;4.33;;;2.50;;
7166;SDS011;3625;51.762;14.320;2023-02-24T08:54:48;6.73;;;2.77;;
7166;SDS011;3625;51.762;14.320;2023-02-24T08:57:20;5.27;;;2.70;;
7166;SDS011;3625;51.762;14.320;2023-02-24T09:00:07;5.93;;;2.80;;
7166;SDS011;3625;51.762;14.320;2023-02-24T09:03:04;5.93;;;2.70;;
7166;SDS011;3625;51.762;14.320;2023-02-24T09:05:34;7.03;;;2.60;;
7166;SDS011;3625;51.762;14.320;2023-02-24T09:08:07;5.63;;;2.70;;
7166;SDS011;3625;51.762;14.320;2023-02-24T09:10:39;5.83;;;2.70;;
7166;SDS011;3625;51.762;14.320;2023-02-24T09:13:19;6.63;;;2.60;;
7166;SDS011;3625;51.762;14.320;2023-02-24T09:16:02;4.20;;;2.30;;
7166;SDS011;3625;51.762;14.320;2023-02-24T09:18:42;2.97;;;2.60;;
7166;SDS011;3625;51.762;14.320;2023-02-24T09:21:11;3.63;;;2.10;;
7166;SDS011;3625;51.762;14.320;2023-02-24T09:24:21;6.87;;;2.80;;
7166;SDS011;3625;51.762;14.320;2023-02-24T09:26:55;4.97;;;2.50;;
7166;SDS011;3625;51.762;14.320;2023-02-24T09:29:34;9.17;;;2.97;;
7166;SDS011;3625;51.762;14.320;2023-02-24T09:32:22;7.57;;;3.53;;
7166;SDS011;3625;51.762;14.320;2023-02-24T09:34:57;7.30;;;2.60;;
7166;SDS011;3625;51.762;14.320;2023-02-24T09:37:26;8.50;;;2.50;;
7166;SDS011;3625;51.762;14.320;2023-02-24T09:39:56;7.93;;;3.17;;
7166;SDS011;3625;51.762;14.320;2023-02-24T09:42:45;5.07;;;2.57;;
7166;SDS011;3625;51.762;14.320;2023-02-24T09:45:23;5.57;;;3.30;;
7166;SDS011;3625;51.762;14.320;2023-02-24T09:48:04;6.13;;;2.70;;
7166;SDS011;3625;51.762;14.320;2023-02-24T09:50:48;5.43;;;2.73;;
7166;SDS011;3625;51.762;14.320;2023-02-24T09:53:33;8.90;;;3.00;;
7166;SDS011;3625;51.762;14.320;2023-02-24T09:56:16;9.43;;;2.97;;
7166;SDS011;3625;51.762;14.320;2023-02-24T09:59:07;6.03;;;2.63;;
7166;SDS011;3625;51.762;14.320;2023-02-24T10:01:53;6.50;;;2.50;;
7166;SDS011;3625;51.762;14.320;2023-02-24T10:04:42;10.07;;;3.17;;
7166;SDS011;3625;51.762;14.320;2023-02-24T10:07:39;5.77;;;2.97;;
7166;SDS011;3625;51.762;14.320;2023-02-24T10:10:14;6.67;;;2.87;;
7166;SDS011;3625;51.762;14.320;2023-02-24T10:12:47;8.17;;;2.90;;
7166;SDS011;3625;51.762;14.320;2023-02-24T10:15:20;9.80;;;3.10;;
7166;SDS011;3625;51.762;14.320;2023-02-24T10:18:14;7.67;;;2.80;;
7166;SDS011;3625;51.762;14.320;2023-02-24T10:21:10;9.83;;;3.17;;
7166;SDS011;3625;51.762;14.320;2023-02-24T10:24:07;5.03;;;2.87;;
7166;SDS011;3625;51.762;14.320;2023-02-24T10:26:50;4.23;;;2.57;;
7166;SDS011;3625;51.762;14.320;2023-02-24T10:29:42;6.50;;;2.83;;
7166;SDS011;3625;51.762;14.320;2023-02-24T10:32:35;9.27;;;3.23;;
7166;SDS011;3625;51.762;14.320;2023-02-24T10:35:27;8.60;;;3.43;;
7166;SDS011;3625;51.762;14.320;2023-02-24T10:38:12;6.07;;;3.10;;
7166;SDS011;3625;51.762;14.320;2023-02-24T10:40:58;4.00;;;2.70;;
7166;SDS011;3625;51.762;14.320;2023-02-24T10:43:32;6.43;;;3.07;;
7166;SDS011;3625;51.762;14.320;2023-02-24T10:46:21;7.47;;;2.70;;
7166;SDS011;3625;51.762;14.320;2023-02-24T10:49:08;5.43;;;2.90;;
7166;SDS011;3625;51.762;14.320;2023-02-24T10:51:47;6.17;;;3.30;;
7166;SDS011;3625;51.762;14.320;2023-02-24T10:54:24;6.80;;;3.10;;
7166;SDS011;3625;51.762;14.320;2023-02-24T10:57:20;6.43;;;2.73;;
7166;SDS011;3625;51.762;14.320;2023-02-24T11:00:13;7.03;;;3.00;;
7166;SDS011;3625;51.762;14.320;2023-02-24T11:02:58;6.70;;;3.10;;
7166;SDS011;3625;51.762;14.320;2023-02-24T11:06:02;6.40;;;3.33;;
7166;SDS011;3625;51.762;14.320;2023-02-24T11:09:22;5.50;;;3.90;;
7166;SDS011;3625;51.762;14.320;2023-02-24T11:12:13;11.17;;;4.40;;
7166;SDS011;3625;51.762;14.320;2023-02-24T11:15:14;6.87;;;3.37;;
7166;SDS011;3625;51.762;14.320;2023-02-24T11:18:13;5.13;;;2.93;;
7166;SDS011;3625;51.762;14.320;2023-02-24T11:20:47;8.70;;;3.50;;
7166;SDS011;3625;51.762;14.320;2023-02-24T11:23:22;5.73;;;3.17;;
7166;SDS011;3625;51.762;14.320;2023-02-24T11:26:05;7.07;;;3.53;;
7166;SDS011;3625;51.762;14.320;2023-02-24T11:28:48;10.70;;;3.83;;
7166;SDS011;3625;51.762;14.320;2023-02-24T11:31:53;6.40;;;3.27;;
7166;SDS011;3625;51.762;14.320;2023-02-24T11:34:48;6.00;;;3.77;;
7166;SDS011;3625;51.762;14.320;2023-02-24T11:37:28;7.37;;;3.80;;
7166;SDS011;3625;51.762;14.320;2023-02-24T11:40:11;7.27;;;3.63;;
7166;SDS011;3625;51.762;14.320;2023-02-24T11:42:50;10.23;;;3.80;;
7166;SDS011;3625;51.762;14.320;2023-02-24T11:45:26;6.70;;;3.47;;
7166;SDS011;3625;51.762;14.320;2023-02-24T11:48:08;10.33;;;3.90;;
7166;SDS011;3625;51.762;14.320;2023-02-24T11:50:45;7.87;;;3.73;;
7166;SDS011;3625;51.762;14.320;2023-02-24T11:53:25;5.97;;;3.50;;
7166;SDS011;3625;51.762;14.320;2023-02-24T11:56:02;9.93;;;3.90;;
7166;SDS011;3625;51.762;14.320;2023-02-24T11:58:41;5.40;;;3.63;;
7166;SDS011;3625;51.762;14.320;2023-02-24T12:01:18;8.90;;;4.07;;
7166;SDS011;3625;51.762;14.320;2023-02-24T12:04:05;7.17;;;3.80;;
7166;SDS011;3625;51.762;14.320;2023-02-24T12:06:54;9.47;;;4.00;;
7166;SDS011;3625;51.762;14.320;2023-02-24T12:09:35;9.40;;;4.53;;
7166;SDS011;3625;51.762;14.320;2023-02-24T12:12:15;8.30;;;3.93;;
7166;SDS011;3625;51.762;14.320;2023-02-24T12:14:50;8.47;;;4.10;;
7166;SDS011;3625;51.762;14.320;2023-02-24T12:17:30;11.60;;;3.93;;
7166;SDS011;3625;51.762;14.320;2023-02-24T12:20:13;6.40;;;4.47;;
7166;SDS011;3625;51.762;14.320;2023-02-24T12:22:54;7.50;;;3.33;;
7166;SDS011;3625;51.762;14.320;2023-02-24T12:25:35;9.33;;;4.37;;
7166;SDS011;3625;51.762;14.320;2023-02-24T12:28:28;7.07;;;3.70;;
7166;SDS011;3625;51.762;14.320;2023-02-24T12:31:20;5.67;;;3.63;;
7166;SDS011;3625;51.762;14.320;2023-02-24T12:34:09;7.80;;;4.30;;
7166;SDS011;3625;51.762;14.320;2023-02-24T12:37:18;9.23;;;3.93;;
7166;SDS011;3625;51.762;14.320;2023-02-24T12:40:14;9.37;;;4.17;;
7166;SDS011;3625;51.762;14.320;2023-02-24T12:43:03;13.90;;;4.30;;
7166;SDS011;3625;51.762;14.320;2023-02-24T12:46:01;6.13;;;3.73;;
7166;SDS011;3625;51.762;14.320;2023-02-24T12:48:54;7.20;;;3.93;;
7166;SDS011;3625;51.762;14.320;2023-02-24T12:55:29;8.60;;;4.00;;
7166;SDS011;3625;51.762;14.320;2023-02-24T12:58:23;4.97;;;3.60;;
7166;SDS011;3625;51.762;14.320;2023-02-24T13:01:12;8.83;;;4.47;;
7166;SDS011;3625;51.762;14.320;2023-02-24T13:07:35;5.37;;;4.23;;
7166;SDS011;3625;51.762;14.320;2023-02-24T13:11:26;8.80;;;4.40;;
7166;SDS011;3625;51.762;14.320;2023-02-24T13:14:07;13.63;;;4.60;;
7166;SDS011;3625;51.762;14.320;2023-02-24T13:16:43;9.77;;;4.07;;
7166;SDS011;3625;51.762;14.320;2023-02-24T13:19:19;5.97;;;4.10;;
7166;SDS011;3625;51.762;14.320;2023-02-24T13:21:56;5.10;;;3.53;;
7166;SDS011;3625;51.762;14.320;2023-02-24T13:24:38;5.03;;;4.03;;
7166;SDS011;3625;51.762;14.320;2023-02-24T13:27:19;5.77;;;3.70;;
7166;SDS011;3625;51.762;14.320;2023-02-24T13:30:23;7.77;;;4.23;;
7166;SDS011;3625;51.762;14.320;2023-02-24T13:36:07;8.80;;;4.00;;
7166;SDS011;3625;51.762;14.320;2023-02-24T13:39:03;8.67;;;3.97;;
7166;SDS011;3625;51.762;14.320;2023-02-24T13:41:59;8.17;;;3.70;;
7166;SDS011;3625;51.762;14.320;2023-02-24T13:44:34;10.10;;;3.73;;
7166;SDS011;3625;51.762;14.320;2023-02-24T13:50:52;8.33;;;3.63;;
7166;SDS011;3625;51.762;14.320;2023-02-24T13:53:50;6.30;;;4.47;;
7166;SDS011;3625;51.762;14.320;2023-02-24T13:56:47;6.13;;;3.90;;
7166;SDS011;3625;51.762;14.320;2023-02-24T13:59:51;4.97;;;3.87;;
7166;SDS011;3625;51.762;14.320;2023-02-24T14:02:47;6.30;;;3.70;;
7166;SDS011;3625;51.762;14.320;2023-02-24T14:05:31;5.47;;;3.87;;
7166;SDS011;3625;51.762;14.320;2023-02-24T14:08:02;5.60;;;3.87;;
7166;SDS011;3625;51.762;14.320;2023-02-24T14:10:33;7.47;;;3.47;;
7166;SDS011;3625;51.762;14.320;2023-02-24T14:13:13;6.40;;;3.83;;
7166;SDS011;3625;51.762;14.320;2023-02-24T14:16:08;4.53;;;3.70;;
7166;SDS011;3625;51.762;14.320;2023-02-24T14:18:42;9.10;;;4.63;;
7166;SDS011;3625;51.762;14.320;2023-02-24T14:21:30;8.03;;;4.57;;
7166;SDS011;3625;51.762;14.320;2023-02-24T14:24:09;7.00;;;3.87;;
7166;SDS011;3625;51.762;14.320;2023-02-24T14:26:43;6.90;;;3.97;;
7166;SDS011;3625;51.762;14.320;2023-02-24T14:29:24;6.17;;;3.73;;
7166;SDS011;3625;51.762;14.320;2023-02-24T14:31:57;5.37;;;4.40;;
7166;SDS011;3625;51.762;14.320;2023-02-24T14:34:33;6.93;;;3.70;;
7166;SDS011;3625;51.762;14.320;2023-02-24T14:37:02;6.37;;;4.47;;
7166;SDS011;3625;51.762;14.320;2023-02-24T14:39:33;6.93;;;4.27;;
7166;SDS011;3625;51.762;14.320;2023-02-24T14:42:12;5.53;;;4.10;;
7166;SDS011;3625;51.762;14.320;2023-02-24T14:44:53;5.67;;;3.77;;
7166;SDS011;3625;51.762;14.320;2023-02-24T14:47:26;7.40;;;3.90;;
7166;SDS011;3625;51.762;14.320;2023-02-24T14:49:58;5.33;;;3.60;;
7166;SDS011;3625;51.762;14.320;2023-02-24T14:52:36;6.13;;;2.97;;
7166;SDS011;3625;51.762;14.320;2023-02-24T14:55:17;5.77;;;2.93;;
7166;SDS011;3625;51.762;14.320;2023-02-24T14:57:52;3.50;;;2.53;;
7166;SDS011;3625;51.762;14.320;2023-02-24T15:00:27;5.47;;;2.70;;
7166;SDS011;3625;51.762;14.320;2023-02-24T15:03:02;5.77;;;3.20;;
7166;SDS011;3625;51.762;14.320;2023-02-24T15:05:39;5.50;;;3.20;;
7166;SDS011;3625;51.762;14.320;2023-02-24T15:08:22;6.17;;;2.93;;
7166;SDS011;3625;51.762;14.320;2023-02-24T15:10:57;6.30;;;3.50;;
7166;SDS011;3625;51.762;14.320;2023-02-24T15:13:33;5.00;;;3.10;;
7166;SDS011;3625;51.762;14.320;2023-02-24T15:16:12;9.50;;;4.90;;
7166;SDS011;3625;51.762;14.320;2023-02-24T15:18:49;3.30;;;3.00;;
7166;SDS011;3625;51.762;14.320;2023-02-24T15:21:32;5.93;;;2.97;;
7166;SDS011;3625;51.762;14.320;2023-02-24T15:24:15;4.87;;;2.67;;
7166;SDS011;3625;51.762;14.320;2023-02-24T15:26:53;7.30;;;3.40;;
7166;SDS011;3625;51.762;14.320;2023-02-24T15:29:30;8.03;;;4.20;;
7166;SDS011;3625;51.762;14.320;2023-02-24T15:32:00;4.40;;;3.13;;
7166;SDS011;3625;51.762;14.320;2023-02-24T15:34:44;5.30;;;3.27;;
7166;SDS011;3625;51.762;14.320;2023-02-24T15:37:27;4.77;;;3.47;;
7166;SDS011;3625;51.762;14.320;2023-02-24T15:42:50;4.77;;;3.17;;
7166;SDS011;3625;51.762;14.320;2023-02-24T15:45:31;6.07;;;3.37;;
7166;SDS011;3625;51.762;14.320;2023-02-24T15:52:24;4.63;;;3.60;;
7166;SDS011;3625;51.762;14.320;2023-02-24T15:54:56;8.07;;;3.70;;
7166;SDS011;3625;51.762;14.320;2023-02-24T15:57:29;7.10;;;3.70;;
7166;SDS011;3625;51.762;14.320;2023-02-24T16:00:03;5.37;;;3.53;;
7166;SDS011;3625;51.762;14.320;2023-02-24T16:02:56;4.77;;;3.60;;
7166;SDS011;3625;51.762;14.320;2023-02-24T16:05:42;4.27;;;3.47;;
7166;SDS011;3625;51.762;14.320;2023-02-24T16:08:14;5.03;;;4.00;;
7166;SDS011;3625;51.762;14.320;2023-02-24T16:10:53;5.63;;;4.10;;
7166;SDS011;3625;51.762;14.320;2023-02-24T16:13:23;4.50;;;3.90;;
7166;SDS011;3625;51.762;14.320;2023-02-24T16:15:58;5.20;;;3.83;;
7166;SDS011;3625;51.762;14.320;2023-02-24T16:18:31;4.47;;;3.60;;
7166;SDS011;3625;51.762;14.320;2023-02-24T16:21:14;5.80;;;4.10;;
7166;SDS011;3625;51.762;14.320;2023-02-24T16:23:49;4.20;;;3.80;;
7166;SDS011;3625;51.762;14.320;2023-02-24T16:26:21;5.20;;;3.67;;
7166;SDS011;3625;51.762;14.320;2023-02-24T16:29:12;5.60;;;3.50;;
7166;SDS011;3625;51.762;14.320;2023-02-24T16:31:58;6.33;;;4.23;;
7166;SDS011;3625;51.762;14.320;2023-02-24T16:35:05;4.90;;;4.50;;
7166;SDS011;3625;51.762;14.320;2023-02-24T16:37:44;5.23;;;3.63;;
7166;SDS011;3625;51.762;14.320;2023-02-24T16:40:27;3.43;;;3.13;;
7166;SDS011;3625;51.762;14.320;2023-02-24T16:43:10;4.73;;;3.40;;
7166;SDS011;3625;51.762;14.320;2023-02-24T16:45:49;3.90;;;3.17;;
7166;SDS011;3625;51.762;14.320;2023-02-24T16:48:39;3.93;;;3.00;;
7166;SDS011;3625;51.762;14.320;2023-02-24T16:51:15;3.53;;;3.23;;
7166;SDS011;3625;51.762;14.320;2023-02-24T16:54:08;3.70;;;3.40;;
7166;SDS011;3625;51.762;14.320;2023-02-24T16:56:43;3.87;;;3.57;;
7166;SDS011;3625;51.762;14.320;2023-02-24T16:59:13;4.23;;;3.60;;
7166;SDS011;3625;51.762;14.320;2023-02-24T17:01:47;4.00;;;3.20;;
7166;SDS011;3625;51.762;14.320;2023-02-24T17:04:16;3.63;;;3.33;;
7166;SDS011;3625;51.762;14.320;2023-02-24T17:06:46;4.80;;;3.40;;